sensor_id;sensor_type;location;lat;lon;timestamp;temperature;humidity
7738;DHT22;29398;45.328;5.558;2023-04-15T00:00:10;10.90;99.90
7738;DHT22;29398;45.328;5.558;2023-04-15T00:01:15;11.00;99.90
7738;DHT22;29398;45.328;5.558;2023-04-15T00:02:20;11.00;99.90
7738;DHT22;29398;45.328;5.558;2023-04-15T00:03:22;11.00;99.90
7738;DHT22;29398;45.328;5.558;2023-04-15T00:04:24;11.10;99.90
7738;DHT22;29398;45.328;5.558;2023-04-15T00:05:28;11.10;99.90
7738;DHT22;29398;45.328;5.558;2023-04-15T00:06:29;11.00;99.90
7738;DHT22;29398;45.328;5.558;2023-04-15T00:07:31;11.00;99.90
7738;DHT22;29398;45.328;5.558;2023-04-15T00:08:33;11.00;99.90
7738;DHT22;29398;45.328;5.558;2023-04-15T00:09:35;11.00;99.90
7738;DHT22;29398;45.328;5.558;2023-04-15T00:10:36;11.10;99.90
7738;DHT22;29398;45.328;5.558;2023-04-15T00:11:38;11.10;99.90
7738;DHT22;29398;45.328;5.558;2023-04-15T00:12:39;11.10;99.90
7738;DHT22;29398;45.328;5.558;2023-04-15T00:13:42;11.20;99.90
7738;DHT22;29398;45.328;5.558;2023-04-15T00:14:43;11.20;99.90
7738;DHT22;29398;45.328;5.558;2023-04-15T00:15:45;11.30;99.90
7738;DHT22;29398;45.328;5.558;2023-04-15T00:16:47;11.30;99.90
7738;DHT22;29398;45.328;5.558;2023-04-15T00:17:56;11.30;99.90
7738;DHT22;29398;45.328;5.558;2023-04-15T00:18:57;11.30;99.90
7738;DHT22;29398;45.328;5.558;2023-04-15T00:19:59;11.30;99.90
7738;DHT22;29398;45.328;5.558;2023-04-15T00:21:00;11.20;99.90
7738;DHT22;29398;45.328;5.558;2023-04-15T00:22:03;11.20;99.90
7738;DHT22;29398;45.328;5.558;2023-04-15T00:23:04;11.20;99.90
7738;DHT22;29398;45.328;5.558;2023-04-15T00:24:06;11.10;99.90
7738;DHT22;29398;45.328;5.558;2023-04-15T00:25:08;11.20;99.90
7738;DHT22;29398;45.328;5.558;2023-04-15T00:26:10;11.20;99.90
7738;DHT22;29398;45.328;5.558;2023-04-15T00:27:13;11.20;99.90
7738;DHT22;29398;45.328;5.558;2023-04-15T00:28:15;11.00;99.90
7738;DHT22;29398;45.328;5.558;2023-04-15T00:29:16;11.00;99.90
7738;DHT22;29398;45.328;5.558;2023-04-15T00:30:18;11.10;99.90
7738;DHT22;29398;45.328;5.558;2023-04-15T00:31:20;11.10;99.90
7738;DHT22;29398;45.328;5.558;2023-04-15T00:32:22;11.10;99.90
7738;DHT22;29398;45.328;5.558;2023-04-15T00:33:25;11.10;99.90
7738;DHT22;29398;45.328;5.558;2023-04-15T00:34:27;11.10;99.90
7738;DHT22;29398;45.328;5.558;2023-04-15T00:35:28;11.00;99.90
7738;DHT22;29398;45.328;5.558;2023-04-15T00:36:32;11.00;99.90
7738;DHT22;29398;45.328;5.558;2023-04-15T00:37:34;11.00;99.90
7738;DHT22;29398;45.328;5.558;2023-04-15T00:38:37;11.10;99.90
7738;DHT22;29398;45.328;5.558;2023-04-15T00:39:38;11.10;99.90
7738;DHT22;29398;45.328;5.558;2023-04-15T00:40:41;11.10;99.90
7738;DHT22;29398;45.328;5.558;2023-04-15T00:41:43;11.10;99.90
7738;DHT22;29398;45.328;5.558;2023-04-15T00:42:46;11.00;99.90
7738;DHT22;29398;45.328;5.558;2023-04-15T00:43:48;11.00;99.90
7738;DHT22;29398;45.328;5.558;2023-04-15T00:44:50;11.00;99.90
7738;DHT22;29398;45.328;5.558;2023-04-15T00:45:52;11.10;99.90
7738;DHT22;29398;45.328;5.558;2023-04-15T00:46:56;11.10;99.90
7738;DHT22;29398;45.328;5.558;2023-04-15T00:47:57;11.10;99.90
7738;DHT22;29398;45.328;5.558;2023-04-15T00:49:02;11.10;99.90
7738;DHT22;29398;45.328;5.558;2023-04-15T00:50:05;13.10;99.90
7738;DHT22;29398;45.328;5.558;2023-04-15T00:51:07;11.10;99.90
7738;DHT22;29398;45.328;5.558;2023-04-15T00:52:09;10.50;99.90
7738;DHT22;29398;45.328;5.558;2023-04-15T00:53:11;11.00;99.90
7738;DHT22;29398;45.328;5.558;2023-04-15T00:54:12;11.00;99.90
7738;DHT22;29398;45.328;5.558;2023-04-15T00:55:15;10.90;99.90
7738;DHT22;29398;45.328;5.558;2023-04-15T00:56:16;11.00;99.90
7738;DHT22;29398;45.328;5.558;2023-04-15T00:57:20;11.00;99.90
7738;DHT22;29398;45.328;5.558;2023-04-15T00:58:22;11.00;99.90
7738;DHT22;29398;45.328;5.558;2023-04-15T00:59:25;11.10;99.90
7738;DHT22;29398;45.328;5.558;2023-04-15T01:00:27;11.10;99.90
7738;DHT22;29398;45.328;5.558;2023-04-15T01:01:30;11.10;99.90
7738;DHT22;29398;45.328;5.558;2023-04-15T01:02:33;11.10;99.90
7738;DHT22;29398;45.328;5.558;2023-04-15T01:03:36;11.00;99.90
7738;DHT22;29398;45.328;5.558;2023-04-15T01:04:38;10.90;99.90
7738;DHT22;29398;45.328;5.558;2023-04-15T01:05:40;10.80;99.90
7738;DHT22;29398;45.328;5.558;2023-04-15T01:06:42;10.80;99.90
7738;DHT22;29398;45.328;5.558;2023-04-15T01:07:45;10.80;99.90
7738;DHT22;29398;45.328;5.558;2023-04-15T01:08:46;10.80;99.90
7738;DHT22;29398;45.328;5.558;2023-04-15T01:09:50;10.80;99.90
7738;DHT22;29398;45.328;5.558;2023-04-15T01:10:51;10.90;99.90
7738;DHT22;29398;45.328;5.558;2023-04-15T01:11:53;10.90;99.90
7738;DHT22;29398;45.328;5.558;2023-04-15T01:12:55;10.90;99.90
7738;DHT22;29398;45.328;5.558;2023-04-15T01:13:57;10.90;99.90
7738;DHT22;29398;45.328;5.558;2023-04-15T01:15:00;10.90;99.90
7738;DHT22;29398;45.328;5.558;2023-04-15T01:16:02;10.80;99.90
7738;DHT22;29398;45.328;5.558;2023-04-15T01:17:04;10.80;99.90
7738;DHT22;29398;45.328;5.558;2023-04-15T01:18:07;10.80;99.90
7738;DHT22;29398;45.328;5.558;2023-04-15T01:19:13;10.80;99.90
7738;DHT22;29398;45.328;5.558;2023-04-15T01:20:17;10.90;99.90
7738;DHT22;29398;45.328;5.558;2023-04-15T01:21:20;10.90;99.90
7738;DHT22;29398;45.328;5.558;2023-04-15T01:22:22;11.00;99.90
7738;DHT22;29398;45.328;5.558;2023-04-15T01:23:24;11.00;99.90
7738;DHT22;29398;45.328;5.558;2023-04-15T01:24:26;10.90;99.90
7738;DHT22;29398;45.328;5.558;2023-04-15T01:25:32;11.00;99.90
7738;DHT22;29398;45.328;5.558;2023-04-15T01:26:35;11.00;99.90
7738;DHT22;29398;45.328;5.558;2023-04-15T01:27:41;11.00;99.90
7738;DHT22;29398;45.328;5.558;2023-04-15T01:28:42;11.10;99.90
7738;DHT22;29398;45.328;5.558;2023-04-15T01:29:44;11.10;99.90
7738;DHT22;29398;45.328;5.558;2023-04-15T01:30:46;11.10;99.90
7738;DHT22;29398;45.328;5.558;2023-04-15T01:31:50;11.10;99.90
7738;DHT22;29398;45.328;5.558;2023-04-15T01:32:52;11.00;99.90
7738;DHT22;29398;45.328;5.558;2023-04-15T01:33:54;11.00;99.90
7738;DHT22;29398;45.328;5.558;2023-04-15T01:34:55;11.00;99.90
7738;DHT22;29398;45.328;5.558;2023-04-15T01:35:58;11.00;99.90
7738;DHT22;29398;45.328;5.558;2023-04-15T01:36:59;11.10;99.90
7738;DHT22;29398;45.328;5.558;2023-04-15T01:38:04;11.10;99.90
7738;DHT22;29398;45.328;5.558;2023-04-15T01:39:06;11.10;99.90
7738;DHT22;29398;45.328;5.558;2023-04-15T01:40:08;11.00;99.90
7738;DHT22;29398;45.328;5.558;2023-04-15T01:41:12;11.00;99.90
7738;DHT22;29398;45.328;5.558;2023-04-15T01:42:14;10.90;99.90
7738;DHT22;29398;45.328;5.558;2023-04-15T01:43:16;10.80;99.90
7738;DHT22;29398;45.328;5.558;2023-04-15T01:44:18;10.90;99.90
7738;DHT22;29398;45.328;5.558;2023-04-15T01:45:19;10.90;99.90
7738;DHT22;29398;45.328;5.558;2023-04-15T01:46:22;10.90;99.90
7738;DHT22;29398;45.328;5.558;2023-04-15T01:47:23;11.00;99.90
7738;DHT22;29398;45.328;5.558;2023-04-15T01:48:25;11.00;99.90
7738;DHT22;29398;45.328;5.558;2023-04-15T01:49:27;11.00;99.90
7738;DHT22;29398;45.328;5.558;2023-04-15T01:50:29;11.00;99.90
7738;DHT22;29398;45.328;5.558;2023-04-15T01:51:30;11.00;99.90
7738;DHT22;29398;45.328;5.558;2023-04-15T01:52:32;11.00;99.90
7738;DHT22;29398;45.328;5.558;2023-04-15T01:53:33;10.90;99.90
7738;DHT22;29398;45.328;5.558;2023-04-15T01:54:36;10.80;99.90
7738;DHT22;29398;45.328;5.558;2023-04-15T01:55:37;10.80;99.90
7738;DHT22;29398;45.328;5.558;2023-04-15T01:56:42;10.80;99.90
7738;DHT22;29398;45.328;5.558;2023-04-15T01:57:43;10.80;99.90
7738;DHT22;29398;45.328;5.558;2023-04-15T01:58:46;10.80;99.90
7738;DHT22;29398;45.328;5.558;2023-04-15T01:59:47;10.80;99.90
7738;DHT22;29398;45.328;5.558;2023-04-15T02:00:49;10.90;99.90
7738;DHT22;29398;45.328;5.558;2023-04-15T02:01:51;10.80;99.90
7738;DHT22;29398;45.328;5.558;2023-04-15T02:02:52;10.80;99.90
7738;DHT22;29398;45.328;5.558;2023-04-15T02:03:55;10.70;99.90
7738;DHT22;29398;45.328;5.558;2023-04-15T02:04:56;10.70;99.90
7738;DHT22;29398;45.328;5.558;2023-04-15T02:05:58;10.60;99.90
7738;DHT22;29398;45.328;5.558;2023-04-15T02:06:59;10.60;99.90
7738;DHT22;29398;45.328;5.558;2023-04-15T02:08:01;10.60;99.90
7738;DHT22;29398;45.328;5.558;2023-04-15T02:09:03;10.70;99.90
7738;DHT22;29398;45.328;5.558;2023-04-15T02:10:06;10.70;99.90
7738;DHT22;29398;45.328;5.558;2023-04-15T02:11:09;10.80;99.90
7738;DHT22;29398;45.328;5.558;2023-04-15T02:12:13;10.80;99.90
7738;DHT22;29398;45.328;5.558;2023-04-15T02:13:14;10.80;99.90
7738;DHT22;29398;45.328;5.558;2023-04-15T02:14:16;10.90;99.90
7738;DHT22;29398;45.328;5.558;2023-04-15T02:15:17;10.90;99.90
7738;DHT22;29398;45.328;5.558;2023-04-15T02:16:19;10.90;99.90
7738;DHT22;29398;45.328;5.558;2023-04-15T02:17:20;10.70;99.90
7738;DHT22;29398;45.328;5.558;2023-04-15T02:18:23;10.60;99.90
7738;DHT22;29398;45.328;5.558;2023-04-15T02:19:24;10.60;99.90
7738;DHT22;29398;45.328;5.558;2023-04-15T02:20:26;10.60;99.90
7738;DHT22;29398;45.328;5.558;2023-04-15T02:21:27;10.60;99.90
7738;DHT22;29398;45.328;5.558;2023-04-15T02:22:29;10.60;99.90
7738;DHT22;29398;45.328;5.558;2023-04-15T02:23:30;10.70;99.90
7738;DHT22;29398;45.328;5.558;2023-04-15T02:24:32;10.80;99.90
7738;DHT22;29398;45.328;5.558;2023-04-15T02:25:33;10.70;99.90
7738;DHT22;29398;45.328;5.558;2023-04-15T02:26:35;10.70;99.90
7738;DHT22;29398;45.328;5.558;2023-04-15T02:27:37;10.70;99.90
7738;DHT22;29398;45.328;5.558;2023-04-15T02:28:39;10.70;99.90
7738;DHT22;29398;45.328;5.558;2023-04-15T02:29:40;10.60;99.90
7738;DHT22;29398;45.328;5.558;2023-04-15T02:30:46;10.60;99.90
7738;DHT22;29398;45.328;5.558;2023-04-15T02:31:48;10.70;99.90
7738;DHT22;29398;45.328;5.558;2023-04-15T02:32:50;10.70;99.90
7738;DHT22;29398;45.328;5.558;2023-04-15T02:33:51;10.80;99.90
7738;DHT22;29398;45.328;5.558;2023-04-15T02:34:53;10.80;99.90
7738;DHT22;29398;45.328;5.558;2023-04-15T02:35:54;10.80;99.90
7738;DHT22;29398;45.328;5.558;2023-04-15T02:36:56;10.70;99.90
7738;DHT22;29398;45.328;5.558;2023-04-15T02:37:58;10.70;99.90
7738;DHT22;29398;45.328;5.558;2023-04-15T02:39:01;10.60;99.90
7738;DHT22;29398;45.328;5.558;2023-04-15T02:40:04;10.50;99.90
7738;DHT22;29398;45.328;5.558;2023-04-15T02:41:06;10.50;99.90
7738;DHT22;29398;45.328;5.558;2023-04-15T02:42:09;10.60;99.90
7738;DHT22;29398;45.328;5.558;2023-04-15T02:43:13;10.60;99.90
7738;DHT22;29398;45.328;5.558;2023-04-15T02:44:14;10.60;99.90
7738;DHT22;29398;45.328;5.558;2023-04-15T02:45:17;10.70;99.90
7738;DHT22;29398;45.328;5.558;2023-04-15T02:46:23;10.80;99.90
7738;DHT22;29398;45.328;5.558;2023-04-15T02:47:25;10.80;99.90
7738;DHT22;29398;45.328;5.558;2023-04-15T02:48:26;10.90;99.90
7738;DHT22;29398;45.328;5.558;2023-04-15T02:49:28;10.90;99.90
7738;DHT22;29398;45.328;5.558;2023-04-15T02:50:30;10.90;99.90
7738;DHT22;29398;45.328;5.558;2023-04-15T02:51:32;10.90;99.90
7738;DHT22;29398;45.328;5.558;2023-04-15T02:52:33;11.00;99.90
7738;DHT22;29398;45.328;5.558;2023-04-15T02:53:36;11.00;99.90
7738;DHT22;29398;45.328;5.558;2023-04-15T02:54:37;11.00;99.90
7738;DHT22;29398;45.328;5.558;2023-04-15T02:55:39;11.00;99.90
7738;DHT22;29398;45.328;5.558;2023-04-15T02:56:40;11.10;99.90
7738;DHT22;29398;45.328;5.558;2023-04-15T02:57:42;11.10;99.90
7738;DHT22;29398;45.328;5.558;2023-04-15T02:58:46;11.10;99.90
7738;DHT22;29398;45.328;5.558;2023-04-15T02:59:50;11.00;99.90
7738;DHT22;29398;45.328;5.558;2023-04-15T03:00:51;10.90;99.90
7738;DHT22;29398;45.328;5.558;2023-04-15T03:01:53;10.90;99.90
7738;DHT22;29398;45.328;5.558;2023-04-15T03:02:58;10.80;99.90
7738;DHT22;29398;45.328;5.558;2023-04-15T03:04:00;10.70;99.90
7738;DHT22;29398;45.328;5.558;2023-04-15T03:05:01;10.70;99.90
7738;DHT22;29398;45.328;5.558;2023-04-15T03:06:04;10.80;99.90
7738;DHT22;29398;45.328;5.558;2023-04-15T03:07:05;10.80;99.90
7738;DHT22;29398;45.328;5.558;2023-04-15T03:08:07;10.80;99.90
7738;DHT22;29398;45.328;5.558;2023-04-15T03:09:08;10.80;99.90
7738;DHT22;29398;45.328;5.558;2023-04-15T03:10:11;10.90;99.90
7738;DHT22;29398;45.328;5.558;2023-04-15T03:11:14;10.90;99.90
7738;DHT22;29398;45.328;5.558;2023-04-15T03:12:16;10.90;99.90
7738;DHT22;29398;45.328;5.558;2023-04-15T03:13:19;10.90;99.90
7738;DHT22;29398;45.328;5.558;2023-04-15T03:14:23;10.90;99.90
7738;DHT22;29398;45.328;5.558;2023-04-15T03:15:25;10.80;99.90
7738;DHT22;29398;45.328;5.558;2023-04-15T03:16:29;10.70;99.90
7738;DHT22;29398;45.328;5.558;2023-04-15T03:17:31;10.70;99.90
7738;DHT22;29398;45.328;5.558;2023-04-15T03:18:34;10.80;99.90
7738;DHT22;29398;45.328;5.558;2023-04-15T03:19:37;10.80;99.90
7738;DHT22;29398;45.328;5.558;2023-04-15T03:20:39;10.70;99.90
7738;DHT22;29398;45.328;5.558;2023-04-15T03:21:41;10.80;99.90
7738;DHT22;29398;45.328;5.558;2023-04-15T03:22:43;10.80;99.90
7738;DHT22;29398;45.328;5.558;2023-04-15T03:23:47;10.80;99.90
7738;DHT22;29398;45.328;5.558;2023-04-15T03:24:49;10.80;99.90
7738;DHT22;29398;45.328;5.558;2023-04-15T03:25:51;10.80;99.90
7738;DHT22;29398;45.328;5.558;2023-04-15T03:26:56;10.80;99.90
7738;DHT22;29398;45.328;5.558;2023-04-15T03:27:58;10.90;99.90
7738;DHT22;29398;45.328;5.558;2023-04-15T03:29:01;10.90;99.90
7738;DHT22;29398;45.328;5.558;2023-04-15T03:30:04;10.90;99.90
7738;DHT22;29398;45.328;5.558;2023-04-15T03:31:09;10.90;99.90
7738;DHT22;29398;45.328;5.558;2023-04-15T03:32:10;10.90;99.90
7738;DHT22;29398;45.328;5.558;2023-04-15T03:33:12;10.90;99.90
7738;DHT22;29398;45.328;5.558;2023-04-15T03:34:13;10.90;99.90
7738;DHT22;29398;45.328;5.558;2023-04-15T03:35:16;10.90;99.90
7738;DHT22;29398;45.328;5.558;2023-04-15T03:36:18;10.90;99.90
7738;DHT22;29398;45.328;5.558;2023-04-15T03:37:20;10.90;99.90
7738;DHT22;29398;45.328;5.558;2023-04-15T03:38:21;10.90;99.90
7738;DHT22;29398;45.328;5.558;2023-04-15T03:39:23;10.90;99.90
7738;DHT22;29398;45.328;5.558;2023-04-15T03:40:24;10.90;99.90
7738;DHT22;29398;45.328;5.558;2023-04-15T03:41:26;10.80;99.90
7738;DHT22;29398;45.328;5.558;2023-04-15T03:42:28;10.80;99.90
7738;DHT22;29398;45.328;5.558;2023-04-15T03:43:30;10.80;99.90
7738;DHT22;29398;45.328;5.558;2023-04-15T03:44:31;10.80;99.90
7738;DHT22;29398;45.328;5.558;2023-04-15T03:45:35;10.80;99.90
7738;DHT22;29398;45.328;5.558;2023-04-15T03:46:36;10.80;99.90
7738;DHT22;29398;45.328;5.558;2023-04-15T03:47:38;10.80;99.90
7738;DHT22;29398;45.328;5.558;2023-04-15T03:48:39;10.80;99.90
7738;DHT22;29398;45.328;5.558;2023-04-15T03:49:41;10.80;99.90
7738;DHT22;29398;45.328;5.558;2023-04-15T03:50:42;10.70;99.90
7738;DHT22;29398;45.328;5.558;2023-04-15T03:51:44;10.70;99.90
7738;DHT22;29398;45.328;5.558;2023-04-15T03:52:45;10.70;99.90
7738;DHT22;29398;45.328;5.558;2023-04-15T03:53:47;10.60;99.90
7738;DHT22;29398;45.328;5.558;2023-04-15T03:54:48;10.60;99.90
7738;DHT22;29398;45.328;5.558;2023-04-15T03:55:51;10.60;99.90
7738;DHT22;29398;45.328;5.558;2023-04-15T03:56:52;10.60;99.90
7738;DHT22;29398;45.328;5.558;2023-04-15T03:57:54;10.60;99.90
7738;DHT22;29398;45.328;5.558;2023-04-15T03:58:55;10.70;99.90
7738;DHT22;29398;45.328;5.558;2023-04-15T03:59:57;10.70;99.90
7738;DHT22;29398;45.328;5.558;2023-04-15T04:00:59;10.70;99.90
7738;DHT22;29398;45.328;5.558;2023-04-15T04:02:01;10.70;99.90
7738;DHT22;29398;45.328;5.558;2023-04-15T04:03:03;10.70;99.90
7738;DHT22;29398;45.328;5.558;2023-04-15T04:04:05;10.80;99.90
7738;DHT22;29398;45.328;5.558;2023-04-15T04:05:06;10.80;99.90
7738;DHT22;29398;45.328;5.558;2023-04-15T04:06:09;10.80;99.90
7738;DHT22;29398;45.328;5.558;2023-04-15T04:07:14;10.80;99.90
7738;DHT22;29398;45.328;5.558;2023-04-15T04:08:17;10.80;99.90
7738;DHT22;29398;45.328;5.558;2023-04-15T04:09:19;10.80;99.90
7738;DHT22;29398;45.328;5.558;2023-04-15T04:10:21;10.80;99.90
7738;DHT22;29398;45.328;5.558;2023-04-15T04:11:22;10.70;99.90
7738;DHT22;29398;45.328;5.558;2023-04-15T04:12:25;10.70;99.90
7738;DHT22;29398;45.328;5.558;2023-04-15T04:13:26;10.70;99.90
7738;DHT22;29398;45.328;5.558;2023-04-15T04:14:28;10.70;99.90
7738;DHT22;29398;45.328;5.558;2023-04-15T04:15:29;10.70;99.90
7738;DHT22;29398;45.328;5.558;2023-04-15T04:16:32;10.60;99.90
7738;DHT22;29398;45.328;5.558;2023-04-15T04:17:33;10.60;99.90
7738;DHT22;29398;45.328;5.558;2023-04-15T04:18:36;10.60;99.90
7738;DHT22;29398;45.328;5.558;2023-04-15T04:19:37;10.70;99.90
7738;DHT22;29398;45.328;5.558;2023-04-15T04:20:39;10.70;99.90
7738;DHT22;29398;45.328;5.558;2023-04-15T04:21:41;10.70;99.90
7738;DHT22;29398;45.328;5.558;2023-04-15T04:22:43;10.70;99.90
7738;DHT22;29398;45.328;5.558;2023-04-15T04:23:44;10.70;99.90
7738;DHT22;29398;45.328;5.558;2023-04-15T04:24:46;10.60;99.90
7738;DHT22;29398;45.328;5.558;2023-04-15T04:25:47;10.70;99.90
7738;DHT22;29398;45.328;5.558;2023-04-15T04:26:49;10.70;99.90
7738;DHT22;29398;45.328;5.558;2023-04-15T04:27:50;10.70;99.90
7738;DHT22;29398;45.328;5.558;2023-04-15T04:28:52;10.70;99.90
7738;DHT22;29398;45.328;5.558;2023-04-15T04:29:53;10.70;99.90
7738;DHT22;29398;45.328;5.558;2023-04-15T04:30:56;10.70;99.90
7738;DHT22;29398;45.328;5.558;2023-04-15T04:31:58;10.60;99.90
7738;DHT22;29398;45.328;5.558;2023-04-15T04:33:00;10.60;99.90
7738;DHT22;29398;45.328;5.558;2023-04-15T04:34:01;10.70;99.90
7738;DHT22;29398;45.328;5.558;2023-04-15T04:35:04;10.70;99.90
7738;DHT22;29398;45.328;5.558;2023-04-15T04:36:05;10.70;99.90
7738;DHT22;29398;45.328;5.558;2023-04-15T04:37:07;10.70;99.90
7738;DHT22;29398;45.328;5.558;2023-04-15T04:38:09;10.70;99.90
7738;DHT22;29398;45.328;5.558;2023-04-15T04:39:11;10.70;99.90
7738;DHT22;29398;45.328;5.558;2023-04-15T04:40:12;10.60;99.90
7738;DHT22;29398;45.328;5.558;2023-04-15T04:41:14;10.60;99.90
7738;DHT22;29398;45.328;5.558;2023-04-15T04:42:15;10.60;99.90
7738;DHT22;29398;45.328;5.558;2023-04-15T04:43:17;10.60;99.90
7738;DHT22;29398;45.328;5.558;2023-04-15T04:44:18;10.60;99.90
7738;DHT22;29398;45.328;5.558;2023-04-15T04:45:22;10.60;99.90
7738;DHT22;29398;45.328;5.558;2023-04-15T04:46:23;10.60;99.90
7738;DHT22;29398;45.328;5.558;2023-04-15T04:47:26;10.70;99.90
7738;DHT22;29398;45.328;5.558;2023-04-15T04:48:27;10.70;99.90
7738;DHT22;29398;45.328;5.558;2023-04-15T04:49:29;10.80;99.90
7738;DHT22;29398;45.328;5.558;2023-04-15T04:50:31;10.80;99.90
7738;DHT22;29398;45.328;5.558;2023-04-15T04:51:33;10.80;99.90
7738;DHT22;29398;45.328;5.558;2023-04-15T04:52:34;10.80;99.90
7738;DHT22;29398;45.328;5.558;2023-04-15T04:53:36;10.70;99.90
7738;DHT22;29398;45.328;5.558;2023-04-15T04:54:37;10.60;99.90
7738;DHT22;29398;45.328;5.558;2023-04-15T04:55:39;10.60;99.90
7738;DHT22;29398;45.328;5.558;2023-04-15T04:56:41;10.50;99.90
7738;DHT22;29398;45.328;5.558;2023-04-15T04:57:43;10.50;99.90
7738;DHT22;29398;45.328;5.558;2023-04-15T04:58:44;10.60;99.90
7738;DHT22;29398;45.328;5.558;2023-04-15T04:59:46;10.60;99.90
7738;DHT22;29398;45.328;5.558;2023-04-15T05:00:47;10.60;99.90
7738;DHT22;29398;45.328;5.558;2023-04-15T05:01:49;10.60;99.90
7738;DHT22;29398;45.328;5.558;2023-04-15T05:02:52;10.60;99.90
7738;DHT22;29398;45.328;5.558;2023-04-15T05:03:54;10.60;99.90
7738;DHT22;29398;45.328;5.558;2023-04-15T05:04:55;10.60;99.90
7738;DHT22;29398;45.328;5.558;2023-04-15T05:05:57;10.60;99.90
7738;DHT22;29398;45.328;5.558;2023-04-15T05:06:59;10.70;99.90
7738;DHT22;29398;45.328;5.558;2023-04-15T05:08:01;10.70;99.90
7738;DHT22;29398;45.328;5.558;2023-04-15T05:09:02;10.60;99.90
7738;DHT22;29398;45.328;5.558;2023-04-15T05:10:05;10.60;99.90
7738;DHT22;29398;45.328;5.558;2023-04-15T05:11:06;10.50;99.90
7738;DHT22;29398;45.328;5.558;2023-04-15T05:12:09;10.40;99.90
7738;DHT22;29398;45.328;5.558;2023-04-15T05:13:14;10.40;99.90
7738;DHT22;29398;45.328;5.558;2023-04-15T05:14:16;10.40;99.90
7738;DHT22;29398;45.328;5.558;2023-04-15T05:15:17;10.40;99.90
7738;DHT22;29398;45.328;5.558;2023-04-15T05:16:20;10.40;99.90
7738;DHT22;29398;45.328;5.558;2023-04-15T05:17:21;10.40;99.90
7738;DHT22;29398;45.328;5.558;2023-04-15T05:18:24;10.40;99.90
7738;DHT22;29398;45.328;5.558;2023-04-15T05:19:26;10.50;99.90
7738;DHT22;29398;45.328;5.558;2023-04-15T05:20:28;10.50;99.90
7738;DHT22;29398;45.328;5.558;2023-04-15T05:21:29;10.50;99.90
7738;DHT22;29398;45.328;5.558;2023-04-15T05:22:32;10.50;99.90
7738;DHT22;29398;45.328;5.558;2023-04-15T05:23:33;10.50;99.90
7738;DHT22;29398;45.328;5.558;2023-04-15T05:24:35;10.50;99.90
7738;DHT22;29398;45.328;5.558;2023-04-15T05:25:36;10.50;99.90
7738;DHT22;29398;45.328;5.558;2023-04-15T05:26:38;10.60;99.90
7738;DHT22;29398;45.328;5.558;2023-04-15T05:27:39;10.50;99.90
7738;DHT22;29398;45.328;5.558;2023-04-15T05:28:41;10.50;99.90
7738;DHT22;29398;45.328;5.558;2023-04-15T05:29:42;10.40;99.90
7738;DHT22;29398;45.328;5.558;2023-04-15T05:30:45;10.40;99.90
7738;DHT22;29398;45.328;5.558;2023-04-15T05:31:46;10.40;99.90
7738;DHT22;29398;45.328;5.558;2023-04-15T05:32:48;10.40;99.90
7738;DHT22;29398;45.328;5.558;2023-04-15T05:33:51;10.40;99.90
7738;DHT22;29398;45.328;5.558;2023-04-15T05:34:53;10.40;99.90
7738;DHT22;29398;45.328;5.558;2023-04-15T05:35:55;10.50;99.90
7738;DHT22;29398;45.328;5.558;2023-04-15T05:36:56;10.50;99.90
7738;DHT22;29398;45.328;5.558;2023-04-15T05:37:58;10.50;99.90
7738;DHT22;29398;45.328;5.558;2023-04-15T05:38:59;10.50;99.90
7738;DHT22;29398;45.328;5.558;2023-04-15T05:40:01;10.50;99.90
7738;DHT22;29398;45.328;5.558;2023-04-15T05:41:04;10.50;99.90
7738;DHT22;29398;45.328;5.558;2023-04-15T05:42:06;10.60;99.90
7738;DHT22;29398;45.328;5.558;2023-04-15T05:43:07;10.60;99.90
7738;DHT22;29398;45.328;5.558;2023-04-15T05:44:10;10.60;99.90
7738;DHT22;29398;45.328;5.558;2023-04-15T05:45:11;10.60;99.90
7738;DHT22;29398;45.328;5.558;2023-04-15T05:46:13;10.50;99.90
7738;DHT22;29398;45.328;5.558;2023-04-15T05:47:14;10.40;99.90
7738;DHT22;29398;45.328;5.558;2023-04-15T05:48:16;10.40;99.90
7738;DHT22;29398;45.328;5.558;2023-04-15T05:49:19;10.50;99.90
7738;DHT22;29398;45.328;5.558;2023-04-15T05:50:21;10.40;99.90
7738;DHT22;29398;45.328;5.558;2023-04-15T05:51:22;10.40;99.90
7738;DHT22;29398;45.328;5.558;2023-04-15T05:52:24;10.40;99.90
7738;DHT22;29398;45.328;5.558;2023-04-15T05:53:25;10.40;99.90
7738;DHT22;29398;45.328;5.558;2023-04-15T05:54:27;10.40;99.90
7738;DHT22;29398;45.328;5.558;2023-04-15T05:55:28;10.30;99.90
7738;DHT22;29398;45.328;5.558;2023-04-15T05:56:31;10.30;99.90
7738;DHT22;29398;45.328;5.558;2023-04-15T05:57:32;10.30;99.90
7738;DHT22;29398;45.328;5.558;2023-04-15T05:58:34;10.30;99.90
7738;DHT22;29398;45.328;5.558;2023-04-15T05:59:35;10.30;99.90
7738;DHT22;29398;45.328;5.558;2023-04-15T06:00:38;10.40;99.90
7738;DHT22;29398;45.328;5.558;2023-04-15T06:01:40;10.40;99.90
7738;DHT22;29398;45.328;5.558;2023-04-15T06:02:42;10.40;99.90
7738;DHT22;29398;45.328;5.558;2023-04-15T06:03:44;10.50;99.90
7738;DHT22;29398;45.328;5.558;2023-04-15T06:04:47;10.50;99.90
7738;DHT22;29398;45.328;5.558;2023-04-15T06:05:49;10.40;99.90
7738;DHT22;29398;45.328;5.558;2023-04-15T06:06:50;10.40;99.90
7738;DHT22;29398;45.328;5.558;2023-04-15T06:07:52;10.20;99.90
7738;DHT22;29398;45.328;5.558;2023-04-15T06:08:53;10.10;99.90
7738;DHT22;29398;45.328;5.558;2023-04-15T06:09:55;10.10;99.90
7738;DHT22;29398;45.328;5.558;2023-04-15T06:10:57;10.20;99.90
7738;DHT22;29398;45.328;5.558;2023-04-15T06:11:59;10.20;99.90
7738;DHT22;29398;45.328;5.558;2023-04-15T06:13:01;10.20;99.90
7738;DHT22;29398;45.328;5.558;2023-04-15T06:14:03;10.20;99.90
7738;DHT22;29398;45.328;5.558;2023-04-15T06:15:05;10.30;99.90
7738;DHT22;29398;45.328;5.558;2023-04-15T06:16:09;10.30;99.90
7738;DHT22;29398;45.328;5.558;2023-04-15T06:17:10;10.40;99.90
7738;DHT22;29398;45.328;5.558;2023-04-15T06:18:14;10.40;99.90
7738;DHT22;29398;45.328;5.558;2023-04-15T06:19:15;10.30;99.90
7738;DHT22;29398;45.328;5.558;2023-04-15T06:20:19;10.30;99.90
7738;DHT22;29398;45.328;5.558;2023-04-15T06:21:20;10.20;99.90
7738;DHT22;29398;45.328;5.558;2023-04-15T06:22:22;10.30;99.90
7738;DHT22;29398;45.328;5.558;2023-04-15T06:23:24;10.30;99.90
7738;DHT22;29398;45.328;5.558;2023-04-15T06:24:26;10.30;99.90
7738;DHT22;29398;45.328;5.558;2023-04-15T06:25:28;10.30;99.90
7738;DHT22;29398;45.328;5.558;2023-04-15T06:26:30;10.30;99.90
7738;DHT22;29398;45.328;5.558;2023-04-15T06:27:31;10.40;99.90
7738;DHT22;29398;45.328;5.558;2023-04-15T06:28:33;10.30;99.90
7738;DHT22;29398;45.328;5.558;2023-04-15T06:29:35;10.30;99.90
7738;DHT22;29398;45.328;5.558;2023-04-15T06:30:37;10.30;99.90
7738;DHT22;29398;45.328;5.558;2023-04-15T06:31:38;10.20;99.90
7738;DHT22;29398;45.328;5.558;2023-04-15T06:32:40;10.20;99.90
7738;DHT22;29398;45.328;5.558;2023-04-15T06:33:41;10.20;99.90
7738;DHT22;29398;45.328;5.558;2023-04-15T06:34:43;10.20;99.90
7738;DHT22;29398;45.328;5.558;2023-04-15T06:35:46;10.20;99.90
7738;DHT22;29398;45.328;5.558;2023-04-15T06:36:49;10.20;99.90
7738;DHT22;29398;45.328;5.558;2023-04-15T06:37:50;10.20;99.90